createdAt,value
2018-03-16T01:27:32.930Z,7.23
2018-03-16T01:29:58.958Z,7.10
2018-03-16T01:32:24.951Z,7.02
2018-03-16T01:34:50.980Z,6.98
2018-03-16T01:37:16.978Z,6.92
2018-03-16T01:39:42.847Z,6.90
2018-03-16T01:42:08.722Z,6.96
2018-03-16T01:44:34.627Z,6.93
2018-03-16T01:47:00.507Z,6.84
2018-03-16T01:49:26.393Z,6.81
2018-03-16T01:51:52.299Z,6.81
2018-03-16T01:54:18.147Z,6.82
2018-03-16T01:56:44.013Z,6.81
2018-03-16T01:59:09.865Z,6.74
2018-03-16T02:01:35.721Z,6.76
2018-03-16T02:04:01.586Z,6.81
2018-03-16T02:06:27.484Z,6.81
2018-03-16T02:08:53.357Z,6.89
2018-03-16T02:11:19.206Z,6.92
2018-03-16T02:13:45.063Z,6.97
2018-03-16T02:16:10.920Z,7.03
2018-03-16T02:18:36.805Z,7.04
2018-03-16T02:21:02.645Z,7.10
2018-03-16T02:23:28.514Z,7.06
2018-03-16T02:25:54.393Z,7.07
2018-03-16T02:28:20.387Z,7.10
2018-03-16T02:30:46.292Z,7.16
2018-03-16T02:33:12.210Z,7.14
2018-03-16T02:35:38.061Z,7.18
2018-03-16T02:38:03.924Z,7.20
2018-03-16T02:40:29.793Z,7.22
2018-03-16T02:42:55.691Z,7.24
2018-03-16T02:45:21.562Z,7.26
2018-03-16T02:47:47.430Z,7.26
2018-03-16T02:50:13.303Z,7.34
2018-03-16T02:52:39.190Z,7.40
2018-03-16T02:55:05.058Z,7.32
2018-03-16T02:57:30.939Z,7.36
2018-03-16T02:59:56.801Z,7.41
2018-03-16T03:02:22.695Z,7.40
2018-03-16T03:04:48.574Z,7.38
2018-03-16T03:07:14.440Z,7.44
2018-03-16T03:09:40.277Z,7.42
2018-03-16T03:12:06.179Z,7.37
2018-03-16T03:14:32.016Z,7.33
2018-03-16T03:16:57.887Z,7.37
2018-03-16T03:19:23.779Z,7.34
2018-03-16T03:21:49.663Z,7.32
2018-03-16T03:24:15.557Z,7.35
2018-03-16T03:26:41.494Z,7.28
2018-03-16T03:29:07.348Z,7.34
2018-03-16T03:31:33.203Z,7.37
2018-03-16T03:33:59.183Z,7.33
2018-03-16T03:36:25.095Z,7.32
2018-03-16T03:38:51.018Z,7.32
2018-03-16T03:41:16.909Z,7.32
2018-03-16T03:43:44.559Z,7.35
2018-03-16T03:46:10.462Z,7.33
2018-03-16T03:48:39.774Z,7.38
2018-03-16T03:51:05.688Z,7.28
2018-03-16T03:53:35.452Z,7.24
2018-03-16T03:56:01.381Z,7.24
2018-03-16T03:58:28.554Z,7.26
2018-03-16T04:00:54.445Z,7.31
2018-03-16T04:03:23.828Z,7.28
2018-03-16T04:05:49.739Z,7.29
2018-03-16T04:08:19.358Z,7.38
2018-03-16T04:10:45.269Z,7.27
2018-03-16T04:13:11.158Z,7.22
2018-03-16T04:15:37.087Z,7.20
2018-03-16T04:18:03.023Z,7.15
2018-03-16T04:20:30.380Z,7.19
2018-03-16T04:22:56.261Z,7.17
2018-03-16T04:25:25.987Z,6.97
2018-03-16T04:27:51.888Z,7.10
2018-03-16T04:30:19.314Z,7.05
2018-03-16T04:32:45.197Z,7.04
2018-03-16T04:35:14.008Z,7.02
2018-03-16T04:37:39.914Z,6.99
2018-03-16T04:40:08.964Z,7.04
2018-03-16T04:42:34.892Z,6.94
2018-03-16T04:45:04.486Z,6.93
2018-03-16T04:47:30.382Z,6.93
2018-03-16T04:49:56.293Z,6.93
2018-03-16T04:52:22.203Z,6.93
2018-03-16T04:54:48.154Z,6.91
2018-03-16T04:57:16.044Z,6.94
2018-03-16T04:59:41.918Z,6.74
2018-03-16T05:02:11.042Z,6.50
2018-03-16T05:04:37.008Z,6.45
2018-03-16T05:07:06.311Z,6.46
2018-03-16T05:09:32.218Z,6.49
2018-03-16T05:11:59.432Z,6.53
2018-03-16T05:14:25.348Z,6.50
2018-03-16T05:16:54.112Z,6.43
2018-03-16T05:19:20.027Z,6.35
2018-03-16T05:21:48.905Z,6.35
2018-03-16T05:24:14.797Z,6.35
2018-03-16T05:26:40.676Z,6.36
2018-03-16T05:29:06.562Z,6.35
2018-03-16T05:31:32.434Z,6.30
2018-03-16T05:34:01.390Z,6.32
2018-03-16T05:36:27.279Z,6.38
2018-03-16T05:38:56.442Z,6.40
2018-03-16T05:41:22.373Z,6.37
2018-03-16T05:43:51.316Z,6.35
2018-03-16T05:46:17.197Z,6.40
2018-03-16T05:48:44.512Z,6.44
2018-03-16T05:51:10.386Z,6.40
2018-03-16T05:53:39.331Z,6.44
2018-03-16T05:56:05.300Z,6.52
2018-03-16T06:01:21.416Z,6.47
2018-03-16T06:03:47.311Z,6.50
2018-03-16T06:06:13.226Z,6.49
2018-03-16T06:08:39.146Z,6.50
2018-03-16T06:11:05.043Z,6.49
2018-03-16T06:16:21.579Z,6.49
2018-03-16T06:18:47.457Z,6.48
2018-03-16T06:21:13.323Z,6.40
2018-03-16T06:23:39.194Z,6.52
2018-03-16T06:26:05.054Z,6.51
2018-03-16T06:28:32.750Z,6.53
2018-03-16T06:30:58.627Z,6.53
2018-03-16T06:33:24.542Z,6.60
2018-03-16T06:35:50.425Z,6.67
2018-03-16T06:38:16.297Z,6.78
2018-03-16T06:40:42.183Z,6.89
2018-03-16T06:43:08.062Z,6.98
2018-03-16T06:45:33.961Z,7.05
2018-03-16T06:47:59.877Z,7.21
2018-03-16T06:50:25.808Z,7.35
2018-03-16T06:52:51.687Z,7.41
2018-03-16T06:55:17.545Z,7.60
2018-03-16T06:57:43.428Z,7.75
2018-03-16T07:00:09.296Z,7.97
2018-03-16T07:02:35.169Z,8.10
2018-03-16T07:05:01.068Z,8.36
2018-03-16T07:07:26.966Z,8.66
2018-03-16T07:09:52.871Z,8.48
2018-03-16T07:12:18.781Z,8.22
2018-03-16T07:14:44.709Z,8.09
2018-03-16T07:17:10.571Z,7.97
2018-03-16T07:19:36.443Z,7.93
2018-03-16T07:22:02.320Z,7.93
2018-03-16T07:24:28.206Z,7.89
2018-03-16T07:26:54.093Z,7.84
2018-03-16T07:29:20.005Z,7.81
2018-03-16T07:31:45.882Z,7.79
2018-03-16T07:34:11.790Z,7.82
2018-03-16T07:36:37.679Z,7.90
2018-03-16T07:39:03.606Z,7.98
2018-03-16T07:41:29.511Z,8.03
2018-03-16T07:43:55.422Z,8.10
2018-03-16T07:46:21.269Z,8.13
2018-03-16T07:48:49.949Z,8.09
2018-03-16T07:51:15.812Z,8.14
2018-03-16T07:53:41.697Z,8.29
2018-03-16T07:56:07.629Z,8.46
2018-03-16T07:58:33.516Z,8.63
2018-03-16T08:01:02.963Z,8.64
2018-03-16T08:03:28.820Z,8.76
2018-03-16T08:05:57.868Z,8.78
2018-03-16T08:08:23.725Z,8.77
2018-03-16T08:10:51.036Z,8.77
2018-03-16T08:13:16.920Z,8.68
2018-03-16T08:15:46.223Z,8.79
2018-03-16T08:18:12.102Z,8.94
2018-03-16T08:20:41.715Z,9.10
2018-03-16T08:23:07.572Z,9.24
2018-03-16T08:25:36.987Z,9.37
2018-03-16T08:28:02.889Z,9.39
2018-03-16T08:30:28.769Z,9.48
2018-03-16T08:32:54.643Z,9.50
2018-03-16T08:35:20.539Z,9.51
2018-03-16T08:37:47.337Z,9.38
2018-03-16T08:40:13.278Z,9.45
2018-03-16T08:42:42.677Z,9.49
2018-03-16T08:45:08.596Z,9.49
2018-03-16T08:47:37.564Z,9.46
2018-03-16T08:50:03.468Z,9.66
2018-03-16T08:52:31.073Z,9.94
2018-03-16T08:54:56.961Z,10.11
2018-03-16T08:57:25.628Z,10.25
2018-03-16T08:59:51.519Z,10.45
2018-03-16T09:04:48.354Z,11.19
2018-03-16T09:07:14.242Z,11.28
2018-03-16T09:09:40.135Z,11.03
2018-03-16T09:12:06.047Z,10.86
2018-03-16T09:14:32.068Z,10.81
2018-03-16T09:16:57.942Z,10.68
2018-03-16T09:19:26.587Z,10.76
2018-03-16T09:21:52.559Z,10.96
2018-03-16T09:26:49.489Z,10.92
2018-03-16T09:29:16.397Z,10.86
2018-03-16T09:31:42.244Z,11.09
2018-03-16T09:34:10.967Z,11.47
2018-03-16T09:36:36.865Z,11.79
2018-03-16T09:39:06.339Z,11.84
2018-03-16T09:41:32.265Z,11.60
2018-03-16T09:43:58.143Z,11.63
2018-03-16T09:46:24.143Z,12.06
2018-03-16T09:48:50.061Z,12.47
2018-03-16T09:51:17.429Z,12.80
2018-03-16T09:53:43.317Z,12.48
2018-03-16T09:56:12.662Z,12.47
2018-03-16T09:58:38.543Z,12.51
2018-03-16T10:01:08.464Z,12.19
2018-03-16T10:03:34.358Z,12.39
2018-03-16T10:06:01.959Z,12.72
2018-03-16T10:08:27.851Z,12.66
2018-03-16T10:10:57.480Z,12.61
2018-03-16T10:13:23.358Z,12.39
2018-03-16T10:15:52.872Z,12.28
2018-03-16T10:18:18.749Z,12.27
2018-03-16T10:20:44.645Z,12.30
2018-03-16T10:23:10.502Z,12.07
2018-03-16T10:25:36.407Z,11.99
2018-03-16T10:28:02.675Z,12.31
2018-03-16T10:30:28.556Z,12.72
2018-03-16T10:32:57.632Z,13.63
2018-03-16T10:35:23.520Z,15.03
2018-03-16T10:37:53.390Z,15.35
2018-03-16T10:40:19.270Z,13.98
2018-03-16T10:42:48.544Z,13.27
2018-03-16T10:45:14.400Z,12.97
2018-03-16T10:47:41.742Z,12.15
2018-03-16T10:50:07.601Z,12.48
2018-03-16T10:52:36.653Z,12.41
2018-03-16T10:55:02.519Z,12.02
2018-03-16T10:57:28.424Z,12.14
2018-03-16T10:59:54.292Z,12.72
2018-03-16T11:02:20.209Z,13.16
2018-03-16T11:04:55.617Z,13.03
2018-03-16T11:07:21.522Z,13.01
2018-03-16T11:09:47.403Z,12.86
2018-03-16T11:12:13.301Z,12.72
2018-03-16T11:14:39.190Z,12.70
2018-03-16T11:17:05.115Z,12.54
2018-03-16T11:19:32.942Z,12.40
2018-03-16T11:21:58.840Z,12.51
2018-03-16T11:24:28.479Z,12.36
2018-03-16T11:26:54.369Z,12.30
2018-03-16T11:29:22.181Z,12.41
2018-03-16T11:31:48.079Z,12.46
2018-03-16T11:34:13.945Z,12.45
2018-03-16T11:36:39.805Z,12.41
2018-03-16T11:39:05.712Z,12.51
2018-03-16T11:41:33.395Z,12.89
2018-03-16T11:43:59.322Z,13.40
2018-03-16T11:46:28.075Z,13.13
2018-03-16T11:48:53.973Z,13.39
2018-03-16T11:51:22.743Z,13.30
2018-03-16T11:53:48.636Z,13.10
2018-03-16T11:56:17.492Z,12.60
2018-03-16T11:58:43.362Z,12.43
2018-03-16T12:01:12.234Z,12.32
2018-03-16T12:03:38.168Z,13.00
2018-03-16T12:06:06.813Z,13.05
2018-03-16T12:08:32.703Z,12.95
2018-03-16T12:10:58.570Z,12.74
2018-03-16T12:13:24.485Z,12.68
2018-03-16T12:15:50.388Z,12.73
2018-03-16T12:18:19.974Z,12.45
2018-03-16T12:20:45.891Z,12.43
2018-03-16T12:23:13.404Z,12.49
2018-03-16T12:25:39.290Z,12.67
2018-03-16T12:28:08.711Z,12.52
2018-03-16T12:30:34.594Z,12.27
2018-03-16T12:33:03.560Z,12.28
2018-03-16T12:35:29.463Z,12.30
2018-03-16T12:37:58.659Z,12.54
2018-03-16T12:40:24.544Z,12.74
2018-03-16T12:42:52.304Z,13.10
2018-03-16T12:45:19.984Z,13.00
2018-03-16T12:47:45.905Z,12.82
2018-03-16T12:50:11.812Z,12.68
2018-03-16T12:52:37.682Z,12.69
2018-03-16T12:55:03.914Z,12.53
2018-03-16T12:57:29.788Z,12.62
2018-03-16T12:59:58.612Z,12.68
2018-03-16T13:02:24.513Z,13.39
2018-03-16T13:04:53.235Z,14.41
2018-03-16T13:07:19.129Z,14.42
2018-03-16T13:12:16.034Z,14.08
2018-03-16T13:14:42.858Z,14.51
2018-03-16T13:17:08.813Z,14.71
2018-03-16T13:19:37.892Z,14.96
2018-03-16T13:22:03.837Z,14.90
2018-03-16T13:24:29.746Z,14.62
2018-03-16T13:26:55.686Z,14.03
2018-03-16T13:29:21.584Z,13.79
2018-03-16T13:31:51.018Z,13.62
2018-03-16T13:34:16.979Z,14.26
2018-03-16T13:36:44.625Z,14.56
2018-03-16T13:39:10.510Z,13.97
2018-03-16T13:41:40.094Z,13.91
2018-03-16T13:44:06.298Z,14.23
2018-03-16T13:46:34.488Z,14.86
2018-03-16T13:49:00.408Z,15.46
2018-03-16T13:51:29.528Z,15.35
2018-03-16T13:53:55.475Z,14.86
2018-03-16T13:56:22.943Z,14.83
2018-03-16T13:58:48.822Z,14.88
2018-03-16T14:01:29.667Z,14.97
2018-03-16T14:03:55.755Z,15.03
2018-03-16T14:06:21.679Z,14.76
2018-03-16T14:08:47.582Z,14.33
2018-03-16T14:11:13.531Z,14.02
2018-03-16T14:13:39.388Z,13.77
2018-03-16T14:16:05.318Z,13.82
2018-03-16T14:18:31.224Z,14.01
2018-03-16T14:20:57.094Z,14.90
2018-03-16T14:23:23.004Z,15.68
2018-03-16T14:25:48.915Z,16.15
2018-03-16T14:28:14.804Z,16.44
2018-03-16T14:30:40.690Z,16.41
2018-03-16T14:33:08.458Z,16.69
2018-03-16T14:35:34.327Z,16.67
2018-03-16T14:38:00.228Z,16.21
2018-03-16T14:40:26.140Z,15.61
2018-03-16T14:42:52.017Z,15.73
2018-03-16T14:45:21.332Z,15.55
2018-03-16T14:47:47.237Z,15.68
2018-03-16T14:50:14.887Z,15.32
2018-03-16T14:52:40.770Z,15.31
2018-03-16T14:55:10.639Z,15.16
2018-03-16T14:57:38.309Z,15.28
2018-03-16T15:00:04.243Z,14.89
2018-03-16T15:02:30.134Z,14.88
2018-03-16T15:04:58.974Z,14.93
2018-03-16T15:07:24.868Z,15.14
2018-03-16T15:09:53.520Z,15.89
2018-03-16T15:12:19.385Z,16.41
2018-03-16T15:14:45.252Z,16.47
2018-03-16T15:17:11.130Z,16.68
2018-03-16T15:19:37.021Z,16.83
2018-03-16T15:22:06.099Z,16.48
2018-03-16T15:24:32.000Z,16.27
2018-03-16T15:27:01.622Z,16.58
2018-03-16T15:29:27.497Z,16.72
2018-03-16T15:31:55.298Z,16.61
2018-03-16T15:34:21.300Z,16.02
2018-03-16T15:36:50.580Z,15.77
2018-03-16T15:39:16.455Z,15.78
2018-03-16T15:41:45.749Z,16.12
2018-03-16T15:44:11.646Z,16.10
2018-03-16T15:46:39.126Z,15.97
2018-03-16T15:49:05.003Z,15.86
2018-03-16T15:51:30.902Z,15.62
2018-03-16T15:53:56.805Z,15.62
2018-03-16T15:56:22.658Z,15.84
2018-03-16T15:58:51.973Z,16.01
2018-03-16T16:01:18.007Z,15.74
2018-03-16T16:03:45.320Z,15.89
2018-03-16T16:06:11.194Z,16.09
2018-03-16T16:08:40.843Z,16.29
2018-03-16T16:11:06.728Z,16.31
2018-03-16T16:13:34.515Z,16.26
2018-03-16T16:16:00.393Z,15.95
2018-03-16T16:18:29.898Z,15.62
2018-03-16T16:20:55.900Z,15.58
2018-03-16T16:23:25.086Z,15.31
2018-03-16T16:25:51.027Z,14.74
2018-03-16T16:28:17.204Z,14.79
2018-03-16T16:30:43.114Z,14.63
2018-03-16T16:33:08.981Z,14.66
2018-03-16T16:35:36.198Z,14.78
2018-03-16T16:38:02.108Z,15.04
2018-03-16T16:40:30.996Z,15.06
2018-03-16T16:42:56.936Z,15.22
2018-03-16T16:45:26.798Z,15.16
2018-03-16T16:47:52.693Z,15.04
2018-03-16T16:50:20.393Z,15.06
2018-03-16T16:52:46.271Z,14.73
2018-03-16T16:55:15.993Z,14.43
2018-03-16T16:57:41.879Z,14.43
2018-03-16T17:00:10.828Z,14.42
2018-03-16T17:02:36.734Z,14.36
2018-03-16T17:05:02.609Z,14.32
2018-03-16T17:07:28.594Z,14.00
2018-03-16T17:09:54.465Z,13.72
2018-03-16T17:12:20.993Z,13.70
2018-03-16T17:14:46.910Z,13.57
2018-03-16T17:17:15.783Z,13.56
2018-03-16T17:19:41.667Z,13.35
2018-03-16T17:22:11.253Z,13.04
2018-03-16T17:24:37.127Z,12.99
2018-03-16T17:27:07.032Z,12.87
2018-03-16T17:29:32.968Z,12.70
2018-03-16T17:32:00.294Z,12.62
2018-03-16T17:34:26.190Z,12.51
2018-03-16T17:36:55.868Z,12.26
2018-03-16T17:39:21.873Z,11.90
2018-03-16T17:41:47.761Z,11.87
2018-03-16T17:44:13.730Z,11.81
2018-03-16T17:46:39.603Z,11.69
2018-03-16T17:49:06.821Z,11.58
2018-03-16T17:51:33.563Z,11.38
2018-03-16T17:54:01.206Z,11.03
2018-03-16T17:56:27.099Z,10.73
2018-03-16T17:58:56.029Z,10.80
2018-03-16T18:01:21.970Z,10.90
2018-03-16T18:03:50.698Z,10.94
2018-03-16T18:06:16.570Z,10.95
2018-03-16T18:08:45.712Z,10.93
2018-03-16T18:11:11.598Z,10.85
2018-03-16T18:13:45.809Z,10.80
2018-03-16T18:16:11.691Z,10.76
2018-03-16T18:18:37.548Z,10.66
2018-03-16T18:21:03.457Z,10.64
2018-03-16T18:23:29.355Z,10.57
2018-03-16T18:25:55.266Z,10.53
2018-03-16T18:28:22.529Z,10.49
2018-03-16T18:30:48.473Z,10.30
2018-03-16T18:33:14.381Z,10.16
2018-03-16T18:35:41.692Z,10.01
2018-03-16T18:38:07.571Z,9.97
2018-03-16T18:40:37.112Z,9.95
2018-03-16T18:43:03.007Z,10.02
2018-03-16T18:45:30.848Z,10.03
2018-03-16T18:47:56.738Z,9.93
2018-03-16T18:50:25.497Z,9.89
2018-03-16T18:52:51.402Z,9.90
2018-03-16T18:55:17.308Z,9.86
2018-03-16T18:57:43.287Z,9.81
2018-03-16T19:00:09.238Z,9.88
2018-03-16T19:02:38.177Z,9.86
2018-03-16T19:05:04.092Z,9.86
2018-03-16T19:07:33.107Z,9.91
2018-03-16T19:09:59.006Z,9.76
2018-03-16T19:12:26.510Z,9.81
2018-03-16T19:14:53.516Z,9.73
2018-03-16T19:17:22.805Z,9.69
2018-03-16T19:19:48.675Z,9.62
2018-03-16T19:22:16.275Z,9.57
2018-03-16T19:24:42.157Z,9.55
2018-03-16T19:27:11.639Z,9.51
2018-03-16T19:29:37.522Z,9.44
2018-03-16T19:32:03.445Z,9.43
2018-03-16T19:34:29.330Z,9.35
2018-03-16T19:36:55.183Z,9.33
2018-03-16T19:39:22.508Z,9.31
2018-03-16T19:41:48.384Z,9.30
2018-03-16T19:44:17.529Z,9.37
2018-03-16T19:46:43.459Z,9.38
2018-03-16T19:49:12.974Z,9.22
2018-03-16T19:51:38.859Z,9.13
2018-03-16T19:54:08.277Z,9.16
2018-03-16T19:56:34.164Z,9.11
2018-03-16T19:59:01.130Z,9.18
2018-03-16T20:01:27.049Z,9.15
2018-03-16T20:03:55.953Z,9.18
2018-03-16T20:06:21.852Z,9.26
2018-03-16T20:08:47.750Z,9.28
2018-03-16T20:11:13.672Z,9.25
2018-03-16T20:13:39.562Z,9.25
2018-03-16T20:16:08.714Z,9.19
2018-03-16T20:18:34.599Z,9.13
2018-03-16T20:21:04.047Z,9.07
2018-03-16T20:23:29.940Z,8.96
2018-03-16T20:25:57.207Z,8.85
2018-03-16T20:28:23.947Z,8.76
2018-03-16T20:30:53.514Z,8.72
2018-03-16T20:33:19.430Z,8.62
2018-03-16T20:35:46.599Z,8.56
2018-03-16T20:38:12.474Z,8.52
2018-03-16T20:40:41.829Z,8.66
2018-03-16T20:43:07.713Z,8.67
2018-03-16T20:45:33.610Z,8.71
2018-03-16T20:47:59.489Z,8.72
2018-03-16T20:50:25.399Z,8.68
2018-03-16T20:52:52.878Z,8.67
2018-03-16T20:55:18.794Z,8.60
2018-03-16T20:57:47.617Z,8.45
2018-03-16T21:00:14.840Z,8.32
2018-03-16T21:02:44.001Z,8.27
2018-03-16T21:05:09.908Z,8.11
2018-03-16T21:07:37.617Z,8.01
2018-03-16T21:10:03.520Z,7.87
2018-03-16T21:12:33.285Z,7.83
2018-03-16T21:14:59.170Z,7.83
2018-03-16T21:17:26.720Z,7.76
2018-03-16T21:19:52.694Z,7.74
2018-03-16T21:22:18.650Z,7.67
2018-03-16T21:24:44.513Z,7.61
2018-03-16T21:27:10.432Z,7.62
2018-03-16T21:29:39.878Z,7.57
2018-03-16T21:32:05.774Z,7.45
2018-03-16T21:34:33.282Z,7.47
2018-03-16T21:36:59.199Z,7.34
2018-03-16T21:39:28.978Z,7.22
2018-03-16T21:41:54.870Z,7.14
2018-03-16T21:44:23.965Z,7.12
2018-03-16T21:46:49.838Z,7.11
2018-03-16T21:49:18.889Z,7.04
2018-03-16T21:51:44.929Z,7.01
2018-03-16T21:54:12.406Z,6.99
2018-03-16T21:56:38.295Z,6.92
2018-03-16T21:59:04.195Z,6.91
2018-03-16T22:01:30.073Z,6.87
2018-03-16T22:03:56.083Z,6.79
2018-03-16T22:06:25.121Z,6.71
2018-03-16T22:08:51.043Z,6.67
2018-03-16T22:11:20.005Z,6.71
2018-03-16T22:13:45.855Z,6.68
2018-03-16T22:16:13.738Z,6.53
2018-03-16T22:18:39.918Z,6.24
2018-03-16T22:21:09.383Z,6.26
2018-03-16T22:23:35.263Z,6.23
2018-03-16T22:26:02.807Z,6.14
2018-03-16T22:28:29.519Z,6.20
2018-03-16T22:30:58.880Z,6.30
2018-03-16T22:33:24.726Z,6.29
2018-03-16T22:35:50.781Z,6.31
2018-03-16T22:38:16.701Z,6.38
2018-03-16T22:40:42.589Z,6.42
2018-03-16T22:43:08.909Z,6.47
2018-03-16T22:45:34.843Z,6.55
2018-03-16T22:48:03.630Z,6.48
2018-03-16T22:50:29.504Z,6.47
2018-03-16T22:52:58.342Z,6.34
2018-03-16T22:55:24.206Z,6.37
2018-03-16T22:57:54.329Z,6.31
2018-03-16T23:00:20.326Z,6.30
2018-03-16T23:02:48.030Z,6.30
2018-03-16T23:05:13.917Z,6.20
2018-03-16T23:07:43.139Z,6.00
2018-03-16T23:10:09.014Z,5.71
2018-03-16T23:12:34.888Z,5.55
2018-03-16T23:15:00.784Z,5.54
2018-03-16T23:17:26.675Z,5.57
2018-03-16T23:19:55.914Z,5.49
2018-03-16T23:22:21.756Z,5.47
2018-03-16T23:24:48.889Z,5.55
2018-03-16T23:27:14.828Z,5.55
2018-03-16T23:29:43.717Z,5.42
2018-03-16T23:32:09.626Z,5.45
2018-03-16T23:34:39.093Z,5.48
2018-03-16T23:37:05.021Z,5.42
2018-03-16T23:39:33.928Z,5.49
2018-03-16T23:41:59.814Z,5.42
2018-03-16T23:44:29.057Z,5.34
2018-03-16T23:46:54.963Z,5.22
2018-03-16T23:49:20.964Z,5.09
2018-03-16T23:51:46.889Z,5.09
2018-03-16T23:54:12.746Z,5.10
2018-03-16T23:56:40.250Z,4.99
2018-03-16T23:59:06.160Z,5.00
